^^
Your Local Weather - Clay, NY Station Historical Data
Daily Summary for February 14, 2018 Units:  Metric    English   Both
« Previous Day
Next Day »
Daily Weekly Monthly Yearly Custom
  High: Low: Average:
Temperature: 8.9 °C -5.3 °C 1.3 °C
Dew Point: 1.7 °C -10.1 °C -2.8 °C
Humidity: 90% 60% 75%
Wind Speed: 8km/h 0km/h 1.3km/h
Wind Gust: 17.7km/h - -
Wind- - SSW
Pressure: 1028 hPa 1012.8 hPa -
Precipitation: 0 mm    
Historical Graphs
 
 
Tabular Data for February 14, 2018
Time Temperature Dew Point Pressure Wind Wind Speed Wind Gust Humidity Rainfall Rate (Hourly) solar
00:04 -5.3 °C -10.1 °C 1028 hPa East 1.6 km/h 3.2 km/h 69% 0 mm 0 W/m2
00:10 -5.2 °C -10 °C 1028 hPa Calm     69% 0 mm 0 W/m2
00:16 -5.2 °C -9.8 °C 1027.7 hPa Calm     70% 0 mm 0 W/m2
00:22 -5.1 °C -9.7 °C 1027.3 hPa Calm     70% 0 mm 0 W/m2
00:28 -5 °C -9.6 °C 1027.3 hPa Calm   3.2 km/h 70% 0 mm 0 W/m2
00:34 -4.9 °C -9.8 °C 1027.3 hPa Calm     69% 0 mm 0 W/m2
00:40 -4.9 °C -9.5 °C 1027.3 hPa Calm     70% 0 mm 0 W/m2
00:46 -4.8 °C -9.4 °C 1027.3 hPa Calm     70% 0 mm 0 W/m2
00:52 -4.8 °C -9.2 °C 1027.3 hPa Calm     71% 0 mm 0 W/m2
00:58 -4.8 °C -9.2 °C 1027 hPa Calm   1.6 km/h 71% 0 mm 0 W/m2
01:04 -4.8 °C -9.1 °C 1027 hPa Calm   1.6 km/h 72% 0 mm 0 W/m2
01:10 -4.8 °C -9.1 °C 1027 hPa Calm     72% 0 mm 0 W/m2
01:16 -4.7 °C -8.8 °C 1027 hPa Calm     73% 0 mm 0 W/m2
01:22 -4.7 °C -8.8 °C 1026.6 hPa Calm     73% 0 mm 0 W/m2
01:28 -4.6 °C -8.7 °C 1026.6 hPa Calm     73% 0 mm 0 W/m2
01:34 -4.6 °C -8.5 °C 1026.3 hPa Calm   1.6 km/h 74% 0 mm 0 W/m2
01:40 -4.5 °C -8.4 °C 1026.3 hPa Calm     74% 0 mm 0 W/m2
01:46 -4.4 °C -8.4 °C 1026.3 hPa Calm     74% 0 mm 0 W/m2
01:52 -4.3 °C -8.3 °C 1026 hPa Calm   1.6 km/h 74% 0 mm 0 W/m2
01:58 -4.3 °C -8.1 °C 1025.6 hPa Calm   1.6 km/h 75% 0 mm 0 W/m2
02:04 -4.3 °C -8.1 °C 1025.6 hPa Calm   1.6 km/h 75% 0 mm 0 W/m2
02:10 -4.1 °C -7.9 °C 1025.6 hPa East 1.6 km/h 1.6 km/h 75% 0 mm 0 W/m2
02:16 -4.1 °C -7.9 °C 1025.3 hPa Calm   1.6 km/h 75% 0 mm 0 W/m2
02:22 -4.1 °C -7.7 °C 1025.3 hPa Calm     76% 0 mm 0 W/m2
02:28 -4.1 °C -7.7 °C 1025.3 hPa Calm     76% 0 mm 0 W/m2
02:34 -4 °C -7.6 °C 1025.3 hPa Calm     76% 0 mm 0 W/m2
02:40 -3.9 °C -7.6 °C 1025.3 hPa Calm     76% 0 mm 0 W/m2
02:46 -3.8 °C -7.4 °C 1025.3 hPa Calm     76% 0 mm 0 W/m2
02:52 -3.7 °C -7.3 °C 1024.9 hPa Calm   1.6 km/h 76% 0 mm 0 W/m2
02:58 -3.7 °C -7.3 °C 1024.6 hPa Calm   3.2 km/h 76% 0 mm 0 W/m2
03:04 -3.6 °C -7 °C 1024.6 hPa Calm   3.2 km/h 77% 0 mm 0 W/m2
03:10 -3.4 °C -6.9 °C 1024.3 hPa East 1.6 km/h 1.6 km/h 77% 0 mm 0 W/m2
03:16 -3.3 °C -6.8 °C 1024.3 hPa East 1.6 km/h 3.2 km/h 77% 0 mm 0 W/m2
03:22 -3.1 °C -6.6 °C 1024.3 hPa NE 3.2 km/h 4.8 km/h 77% 0 mm 0 W/m2
03:28 -3 °C -6.6 °C 1024.3 hPa NE 3.2 km/h 4.8 km/h 76% 0 mm 0 W/m2
03:36 -2.9 °C -6.4 °C 1023.9 hPa NE 3.2 km/h 3.2 km/h 77% 0 mm 0 W/m2
03:42 -2.9 °C -6.2 °C 1023.9 hPa NE 1.6 km/h 3.2 km/h 78% 0 mm 0 W/m2
03:48 -2.8 °C -6.1 °C 1023.9 hPa NE 1.6 km/h 3.2 km/h 78% 0 mm 0 W/m2
03:54 -2.8 °C -6.1 °C 1023.9 hPa NE 1.6 km/h 3.2 km/h 78% 0 mm 0 W/m2
04:00 -2.8 °C -6.1 °C 1023.6 hPa NE 1.6 km/h 1.6 km/h 78% 0 mm 0 W/m2
04:12 -2.7 °C -6 °C 1023.2 hPa NE 1.6 km/h 1.6 km/h 78% 0 mm 0 W/m2
04:18 -2.7 °C -6 °C 1023.2 hPa NE 1.6 km/h 1.6 km/h 78% 0 mm 0 W/m2
04:24 -2.6 °C -5.9 °C 1023.2 hPa NE 1.6 km/h 1.6 km/h 78% 0 mm 0 W/m2
04:30 -2.6 °C -5.9 °C 1023.2 hPa ENE 1.6 km/h 1.6 km/h 78% 0 mm 0 W/m2
04:36 -2.4 °C -5.9 °C 1023.2 hPa ENE 1.6 km/h 1.6 km/h 77% 0 mm 0 W/m2
04:42 -2.4 °C -5.9 °C 1023.2 hPa Calm     77% 0 mm 0 W/m2
04:48 -2.4 °C -5.9 °C 1023.2 hPa ENE 1.6 km/h 1.6 km/h 77% 0 mm 0 W/m2
04:54 -2.4 °C -5.7 °C 1023.2 hPa Calm   4.8 km/h 78% 0 mm 0 W/m2
05:00 -2.2 °C -5.7 °C 1023.2 hPa ENE 1.6 km/h 1.6 km/h 77% 0 mm 0 W/m2
05:06 -2.1 °C -5.8 °C 1022.9 hPa ENE 1.6 km/h 1.6 km/h 76% 0 mm 0 W/m2
05:12 -2.1 °C -5.6 °C 1023.2 hPa Calm     77% 0 mm 0 W/m2
05:18 -2.1 °C -5.6 °C 1023.2 hPa Calm     77% 0 mm 0 W/m2
05:24 -2.1 °C -5.4 °C 1023.2 hPa Calm     78% 0 mm 0 W/m2
05:30 -2.1 °C -5.4 °C 1023.2 hPa Calm     78% 0 mm 0 W/m2
05:36 -2.1 °C -5.4 °C 1022.9 hPa Calm     78% 0 mm 0 W/m2
05:42 -2 °C -5.2 °C 1022.6 hPa Calm     79% 0 mm 0 W/m2
05:48 -1.9 °C -5.1 °C 1022.6 hPa Calm     79% 0 mm 0 W/m2
05:54 -1.9 °C -5.1 °C 1022.6 hPa Calm     79% 0 mm 0 W/m2
06:00 -1.9 °C -5.1 °C 1022.6 hPa Calm     79% 0 mm 0 W/m2
06:06 -1.9 °C -5.3 °C 1022.6 hPa Calm     78% 0 mm 0 W/m2
06:12 -1.9 °C -5.1 °C 1022.6 hPa Calm   1.6 km/h 79% 0 mm 0 W/m2
06:18 -1.9 °C -5.1 °C 1022.6 hPa Calm   1.6 km/h 79% 0 mm 0 W/m2
06:24 -1.9 °C -5.1 °C 1022.6 hPa Calm     79% 0 mm 0 W/m2
06:30 -1.8 °C -5 °C 1022.6 hPa Calm     79% 0 mm 0 W/m2
06:36 -1.8 °C -4.9 °C 1022.6 hPa Calm     79% 0 mm 0 W/m2
06:42 -1.7 °C -4.9 °C 1022.6 hPa Calm     79% 0 mm 0 W/m2
06:48 -1.7 °C -4.9 °C 1022.2 hPa Calm   1.6 km/h 79% 0 mm 0 W/m2
06:54 -1.7 °C -4.9 °C 1022.2 hPa Calm     79% 0 mm 0 W/m2
07:00 -1.7 °C -4.7 °C 1022.2 hPa Calm     80% 0 mm 0 W/m2
07:06 -1.6 °C -4.8 °C 1022.2 hPa Calm     79% 0 mm 0 W/m2
07:12 -1.6 °C -4.7 °C 1022.2 hPa Calm     79% 0 mm 0 W/m2
07:18 -1.5 °C -4.7 °C 1022.2 hPa Calm     79% 0 mm 5 W/m2
07:24 -1.4 °C -4.6 °C 1022.2 hPa Calm     79% 0 mm 5 W/m2
07:30 -1.4 °C -4.6 °C 1022.2 hPa Calm     79% 0 mm 9 W/m2
07:36 -1.4 °C -4.6 °C 1022.2 hPa Calm     79% 0 mm 11 W/m2
07:42 -1.3 °C -4.5 °C 1022.2 hPa Calm     79% 0 mm 14 W/m2
07:48 -1.3 °C -4.4 °C 1022.2 hPa Calm     79% 0 mm 11 W/m2
07:54 -1.3 °C -4.4 °C 1022.2 hPa Calm     79% 0 mm 14 W/m2
08:00 -1.2 °C -4.4 °C 1022.2 hPa Calm     79% 0 mm 16 W/m2
08:06 -1.2 °C -4.3 °C 1022.2 hPa Calm     79% 0 mm 16 W/m2
08:12 -1.1 °C -4.3 °C 1022.2 hPa Calm     79% 0 mm 12 W/m2
08:18 -1.1 °C -4.2 °C 1022.2 hPa Calm     79% 0 mm 28 W/m2
08:24 -0.9 °C -4.1 °C 1022.2 hPa Calm     79% 0 mm 32 W/m2
08:30 -0.8 °C -4 °C 1022.6 hPa Calm     79% 0 mm 33 W/m2
08:36 -0.7 °C -3.9 °C 1022.2 hPa Calm     79% 0 mm 39 W/m2
08:42 -0.6 °C -3.6 °C 1022.2 hPa Calm     80% 0 mm 46 W/m2
08:48 -0.4 °C -3.5 °C 1022.2 hPa Calm     80% 0 mm 49 W/m2
08:54 -0.3 °C -3.3 °C 1022.2 hPa Calm     80% 0 mm 54 W/m2
09:00 -0.2 °C -3.2 °C 1022.2 hPa Calm     80% 0 mm 60 W/m2
09:06 -0.1 °C -3.1 °C 1022.2 hPa Calm     80% 0 mm 77 W/m2
09:12 0.2 °C -3.1 °C 1022.2 hPa Calm   1.6 km/h 79% 0 mm 91 W/m2
09:18 0.4 °C -2.8 °C 1022.2 hPa Calm   4.8 km/h 79% 0 mm 107 W/m2
09:24 0.6 °C -2.6 °C 1022.2 hPa NNW 1.6 km/h 4.8 km/h 79% 0 mm 97 W/m2
09:30 0.8 °C -2.6 °C 1022.2 hPa NNW 1.6 km/h 1.6 km/h 78% 0 mm 118 W/m2
09:36 1.1 °C -2.3 °C 1022.2 hPa Calm   1.6 km/h 78% 0 mm 120 W/m2
09:42 1.4 °C -2.2 °C 1022.2 hPa Calm   1.6 km/h 77% 0 mm 118 W/m2
09:48 1.8 °C -2 °C 1021.9 hPa Calm   1.6 km/h 76% 0 mm 123 W/m2
09:54 1.9 °C -2 °C 1021.9 hPa Calm     75% 0 mm 128 W/m2
10:00 2.3 °C -1.7 °C 1021.9 hPa Calm     75% 0 mm 120 W/m2
10:06 2.6 °C -1.6 °C 1021.9 hPa Calm     74% 0 mm 148 W/m2
10:12 2.8 °C -1.6 °C 1021.6 hPa Calm     73% 0 mm 186 W/m2
10:18 3.2 °C -1 °C 1021.6 hPa Calm   4.8 km/h 74% 0 mm 218 W/m2
10:24 4 °C -0.1 °C 1021.6 hPa South 1.6 km/h 8 km/h 75% 0 mm 216 W/m2
10:30 4.4 °C 0.2 °C 1021.6 hPa SSE 3.2 km/h 3.2 km/h 74% 0 mm 206 W/m2
10:36 4.6 °C 0.4 °C 1021.2 hPa SSW 3.2 km/h 6.4 km/h 74% 0 mm 218 W/m2
10:42 4.7 °C 0.3 °C 1020.9 hPa SSW 4.8 km/h 8 km/h 73% 0 mm 241 W/m2
10:48 4.9 °C 0.5 °C 1020.9 hPa South 4.8 km/h 8 km/h 73% 0 mm 309 W/m2
10:54 5.2 °C 0.6 °C 1020.9 hPa SSW 3.2 km/h 4.8 km/h 72% 0 mm 257 W/m2
11:00 5.2 °C 0.6 °C 1020.9 hPa SSW 3.2 km/h 8 km/h 72% 0 mm 264 W/m2
11:06 5.2 °C 0.6 °C 1020.9 hPa SSW 4.8 km/h 8 km/h 72% 0 mm 250 W/m2
11:12 5.2 °C 0.6 °C 1020.5 hPa SSE 4.8 km/h 11.3 km/h 72% 0 mm 260 W/m2
11:18 5.3 °C 0.9 °C 1020.5 hPa SW 4.8 km/h 11.3 km/h 73% 0 mm 290 W/m2
11:24 5.6 °C 0.9 °C 1020.5 hPa SSW 3.2 km/h 11.3 km/h 72% 0 mm 294 W/m2
11:30 5.6 °C 0.9 °C 1020.5 hPa SW 4.8 km/h 4.8 km/h 72% 0 mm 367 W/m2
11:36 5.9 °C 1.1 °C 1020.5 hPa South 4.8 km/h 4.8 km/h 71% 0 mm 301 W/m2
11:42 6.1 °C 1.2 °C 1019.9 hPa SW 6.4 km/h 14.5 km/h 71% 0 mm 380 W/m2
11:48 6.4 °C 1.2 °C 1019.9 hPa SW 6.4 km/h 14.5 km/h 69% 0 mm 417 W/m2
11:54 6.6 °C 1.1 °C 1019.9 hPa South 6.4 km/h 9.7 km/h 68% 0 mm 316 W/m2
12:00 6.4 °C 1.2 °C 1019.5 hPa SW 6.4 km/h 8 km/h 69% 0 mm 329 W/m2
12:06 6.8 °C 1.3 °C 1019.5 hPa WSW 6.4 km/h 8 km/h 68% 0 mm 457 W/m2
12:12 7.1 °C 1.3 °C 1019.5 hPa SW 4.8 km/h 6.4 km/h 67% 0 mm 768 W/m2
12:18 7.1 °C 1.2 °C 1019.5 hPa WSW 4.8 km/h 8 km/h 66% 0 mm 283 W/m2
12:24 7.3 °C 1.4 °C 1019.2 hPa WSW 6.4 km/h 8 km/h 66% 0 mm 345 W/m2
12:30 7.2 °C 1.2 °C 1019.2 hPa South 6.4 km/h 6.4 km/h 66% 0 mm 359 W/m2
12:36 7.8 °C 1.6 °C 1019.2 hPa WSW 4.8 km/h 6.4 km/h 65% 0 mm 359 W/m2
12:42 7.4 °C 1.2 °C 1018.8 hPa WSW 4.8 km/h 12.9 km/h 65% 0 mm 299 W/m2
12:48 7.1 °C 1.2 °C 1018.8 hPa West 8 km/h 17.7 km/h 66% 0 mm 323 W/m2
12:54 6.9 °C 1 °C 1018.8 hPa SW 8 km/h 16.1 km/h 66% 0 mm 297 W/m2
13:00 7.5 °C 1.3 °C 1018.8 hPa West 6.4 km/h 11.3 km/h 65% 0 mm 786 W/m2
13:06 7.7 °C 1.3 °C 1018.8 hPa WSW 4.8 km/h 11.3 km/h 64% 0 mm 341 W/m2
13:12 7.4 °C 1 °C 1018.5 hPa SW 6.4 km/h 6.4 km/h 64% 0 mm 292 W/m2
13:18 7.6 °C 1.2 °C 1018.5 hPa SW 6.4 km/h 11.3 km/h 64% 0 mm 292 W/m2
13:24 7.7 °C 1.3 °C 1018.2 hPa West 6.4 km/h 8 km/h 64% 0 mm 698 W/m2
13:30 7.9 °C 1.3 °C 1018.2 hPa SW 8 km/h 8 km/h 63% 0 mm 591 W/m2
13:36 7.9 °C 1.3 °C 1018.2 hPa WSW 6.4 km/h 8 km/h 63% 0 mm 462 W/m2
13:42 8.3 °C 1.4 °C 1018.2 hPa WSW 6.4 km/h 6.4 km/h 62% 0 mm 661 W/m2
13:48 8.2 °C 1.3 °C 1018.2 hPa WSW 6.4 km/h 9.7 km/h 62% 0 mm 573 W/m2
13:54 8 °C 1.4 °C 1018.2 hPa West 4.8 km/h 6.4 km/h 63% 0 mm 251 W/m2
14:00 7.9 °C 1.3 °C 1018.2 hPa SW 4.8 km/h 4.8 km/h 63% 0 mm 236 W/m2
14:06 7.9 °C 1.3 °C 1018.2 hPa SW 3.2 km/h 4.8 km/h 63% 0 mm 229 W/m2
14:12 7.8 °C 1.4 °C 1017.8 hPa WSW 3.2 km/h 6.4 km/h 64% 0 mm 309 W/m2
14:18 8 °C 1.4 °C 1017.8 hPa WSW 3.2 km/h 6.4 km/h 63% 0 mm 299 W/m2
14:24 8.1 °C 1.5 °C 1017.8 hPa WSW 4.8 km/h 8 km/h 63% 0 mm 260 W/m2
14:30 8.6 °C 1.5 °C 1017.8 hPa WSW 3.2 km/h 3.2 km/h 61% 0 mm 575 W/m2
14:36 8.6 °C 1.4 °C 1017.8 hPa SW 3.2 km/h 8 km/h 61% 0 mm 446 W/m2
14:42 8.7 °C 1.6 °C 1017.8 hPa WSW 3.2 km/h 9.7 km/h 61% 0 mm 471 W/m2
14:48 8.9 °C 1.6 °C 1017.8 hPa WSW 4.8 km/h 9.7 km/h 60% 0 mm 390 W/m2
14:54 8.6 °C 1.4 °C 1017.8 hPa WSW 3.2 km/h 4.8 km/h 61% 0 mm 195 W/m2
15:00 8.2 °C 1.4 °C 1017.8 hPa West 3.2 km/h 3.2 km/h 62% 0 mm 274 W/m2
15:06 8.4 °C 1.5 °C 1017.5 hPa West 1.6 km/h 3.2 km/h 62% 0 mm 367 W/m2
15:12 8.6 °C 1.7 °C 1017.5 hPa West 3.2 km/h 6.4 km/h 62% 0 mm 420 W/m2
15:18 8.8 °C 1.5 °C 1017.5 hPa West 3.2 km/h 6.4 km/h 60% 0 mm 359 W/m2
15:24 8.9 °C 1.6 °C 1017.5 hPa WSW 3.2 km/h 8 km/h 60% 0 mm 353 W/m2
15:30 8.7 °C 1.6 °C 1017.2 hPa South 4.8 km/h 6.4 km/h 61% 0 mm 376 W/m2
15:36 8.7 °C 1.6 °C 1017.2 hPa SW 4.8 km/h 8 km/h 61% 0 mm 323 W/m2
15:42 8.7 °C 1.6 °C 1017.2 hPa SW 3.2 km/h 4.8 km/h 61% 0 mm 299 W/m2
15:48 8.7 °C 1.6 °C 1017.2 hPa SW 4.8 km/h 4.8 km/h 61% 0 mm 272 W/m2
15:54 8.6 °C 1.5 °C 1017.2 hPa WSW 3.2 km/h 4.8 km/h 61% 0 mm 255 W/m2
16:00 8.6 °C 1.5 °C 1017.2 hPa SW 3.2 km/h 3.2 km/h 61% 0 mm 234 W/m2
16:06 8.7 °C 1.6 °C 1016.8 hPa SW 1.6 km/h 3.2 km/h 61% 0 mm 213 W/m2
16:12 8.6 °C 1.4 °C 1016.8 hPa SW 1.6 km/h 4.8 km/h 61% 0 mm 183 W/m2
16:18 8.4 °C 1.6 °C 1016.8 hPa WSW 1.6 km/h 4.8 km/h 62% 0 mm 62 W/m2
16:24 8.3 °C 1.4 °C 1016.8 hPa WSW 1.6 km/h 1.6 km/h 62% 0 mm 56 W/m2
16:30 8.2 °C 1.4 °C 1016.5 hPa WSW 1.6 km/h 1.6 km/h 62% 0 mm 49 W/m2
16:36 8.2 °C 1.3 °C 1016.5 hPa WSW 1.6 km/h 1.6 km/h 62% 0 mm 46 W/m2
16:42 8.1 °C 1.5 °C 1016.5 hPa Calm     63% 0 mm 42 W/m2
16:48 8.1 °C 1.4 °C 1016.5 hPa Calm   1.6 km/h 63% 0 mm 37 W/m2
16:54 8 °C 1.4 °C 1016.1 hPa Calm     63% 0 mm 33 W/m2
17:00 7.9 °C 1.3 °C 1016.1 hPa Calm     63% 0 mm 30 W/m2
17:06 7.8 °C 1.4 °C 1016.1 hPa Calm     64% 0 mm 25 W/m2
17:12 7.6 °C 1.2 °C 1016.1 hPa Calm     64% 0 mm 21 W/m2
17:18 7.4 °C 1 °C 1016.1 hPa Calm     64% 0 mm 16 W/m2
17:24 6.6 °C 0.3 °C 1016.1 hPa Calm     64% 0 mm 11 W/m2
17:30 5.8 °C 0.2 °C 1016.1 hPa Calm     67% 0 mm 7 W/m2
17:36 5.4 °C 0.2 °C 1015.8 hPa Calm     69% 0 mm 5 W/m2
17:42 5 °C 0 °C 1015.8 hPa Calm     70% 0 mm 0 W/m2
17:48 4.7 °C -0.1 °C 1015.8 hPa Calm     71% 0 mm 0 W/m2
17:54 4.4 °C -0.3 °C 1016.1 hPa Calm     71% 0 mm 0 W/m2
18:00 4.2 °C -0.4 °C 1016.1 hPa Calm     72% 0 mm 0 W/m2
18:06 3.9 °C -0.5 °C 1016.1 hPa Calm   1.6 km/h 73% 0 mm 0 W/m2
18:12 3.5 °C -0.9 °C 1016.1 hPa Calm     73% 0 mm 0 W/m2
18:18 3.2 °C -1 °C 1016.1 hPa Calm     74% 0 mm 0 W/m2
18:24 2.9 °C -1.1 °C 1016.1 hPa Calm     75% 0 mm 0 W/m2
18:30 2.7 °C -1.2 °C 1016.1 hPa Calm     76% 0 mm 0 W/m2
18:36 2.4 °C -1.2 °C 1016.1 hPa Calm     77% 0 mm 0 W/m2
18:42 2.2 °C -1.3 °C 1016.1 hPa Calm     78% 0 mm 0 W/m2
18:48 2 °C -1.3 °C 1016.1 hPa Calm     79% 0 mm 0 W/m2
18:54 1.8 °C -1.4 °C 1016.1 hPa Calm   1.6 km/h 79% 0 mm 0 W/m2
19:00 1.7 °C -1.4 °C 1015.8 hPa Calm     80% 0 mm 0 W/m2
19:06 1.6 °C -1.3 °C 1015.8 hPa Calm     81% 0 mm 0 W/m2
19:12 1.3 °C -1.7 °C 1015.8 hPa Calm     80% 0 mm 0 W/m2
19:18 1.1 °C -1.8 °C 1015.8 hPa Calm     81% 0 mm 0 W/m2
19:24 0.9 °C -1.8 °C 1015.8 hPa Calm     82% 0 mm 0 W/m2
19:30 0.8 °C -1.9 °C 1015.8 hPa Calm     82% 0 mm 0 W/m2
19:36 0.8 °C -1.8 °C 1015.8 hPa Calm     83% 0 mm 0 W/m2
19:42 0.7 °C -1.9 °C 1015.5 hPa Calm     83% 0 mm 0 W/m2
19:48 0.6 °C -2 °C 1015.5 hPa Calm     83% 0 mm 0 W/m2
19:54 0.4 °C -2 °C 1015.5 hPa Calm     84% 0 mm 0 W/m2
20:00 0.3 °C -2.1 °C 1015.5 hPa Calm     84% 0 mm 0 W/m2
20:06 0.1 °C -2.3 °C 1015.5 hPa Calm     84% 0 mm 0 W/m2
20:12 0 °C -2.4 °C 1015.5 hPa Calm     84% 0 mm 0 W/m2
20:18 -0.1 °C -2.5 °C 1015.5 hPa Calm     84% 0 mm 0 W/m2
20:24 -0.2 °C -2.4 °C 1015.5 hPa Calm     85% 0 mm 0 W/m2
20:30 -0.3 °C -2.6 °C 1015.5 hPa Calm     85% 0 mm 0 W/m2
20:36 -0.4 °C -2.6 °C 1015.5 hPa Calm     85% 0 mm 0 W/m2
20:42 -0.6 °C -2.8 °C 1015.5 hPa Calm     85% 0 mm 0 W/m2
20:48 -0.7 °C -2.9 °C 1015.1 hPa Calm     85% 0 mm 0 W/m2
20:54 -0.9 °C -2.9 °C 1015.1 hPa Calm     86% 0 mm 0 W/m2
21:00 -1 °C -3.1 °C 1015.1 hPa Calm     86% 0 mm 0 W/m2
21:06 -1.1 °C -3.2 °C 1015.1 hPa Calm     86% 0 mm 0 W/m2
21:12 -1.2 °C -3.2 °C 1015.1 hPa Calm     86% 0 mm 0 W/m2
21:18 -1.3 °C -3.2 °C 1015.1 hPa Calm     87% 0 mm 0 W/m2
21:24 -1.3 °C -3.2 °C 1015.1 hPa Calm     87% 0 mm 0 W/m2
21:30 -1.4 °C -3.3 °C 1014.8 hPa Calm     87% 0 mm 0 W/m2
21:36 -1.3 °C -3 °C 1014.4 hPa Calm   3.2 km/h 88% 0 mm 0 W/m2
21:42 -1.3 °C -3 °C 1014.4 hPa Calm     88% 0 mm 0 W/m2
21:48 -1.3 °C -3.1 °C 1014.4 hPa Calm     88% 0 mm 0 W/m2
21:54 -1.4 °C -3.2 °C 1014.1 hPa Calm     88% 0 mm 0 W/m2
22:00 -1.3 °C -3.1 °C 1014.1 hPa Calm     88% 0 mm 0 W/m2
22:06 -1.2 °C -2.7 °C 1014.1 hPa Calm     89% 0 mm 0 W/m2
22:12 -1.3 °C -2.9 °C 1014.1 hPa Calm     89% 0 mm 0 W/m2
22:18 -1.4 °C -2.9 °C 1014.1 hPa Calm     89% 0 mm 0 W/m2
22:24 -1.5 °C -3.1 °C 1014.1 hPa Calm     89% 0 mm 0 W/m2
22:30 -1.6 °C -3.1 °C 1014.1 hPa Calm     89% 0 mm 0 W/m2
22:36 -1.7 °C -3.3 °C 1013.8 hPa Calm     89% 0 mm 0 W/m2
22:42 -1.8 °C -3.4 °C 1013.8 hPa Calm     89% 0 mm 0 W/m2
22:48 -1.9 °C -3.4 °C 1013.4 hPa Calm     89% 0 mm 0 W/m2
22:54 -1.9 °C -3.5 °C 1013.4 hPa Calm     89% 0 mm 0 W/m2
23:00 -1.8 °C -3.2 °C 1013.4 hPa Calm     90% 0 mm 0 W/m2
23:06 -1.8 °C -3.4 °C 1013.4 hPa Calm     89% 0 mm 0 W/m2
23:12 -2.1 °C -3.6 °C 1013.4 hPa Calm     90% 0 mm 0 W/m2
23:18 -2.3 °C -3.9 °C 1013.4 hPa Calm     89% 0 mm 0 W/m2
23:24 -2.4 °C -3.8 °C 1013.4 hPa Calm     90% 0 mm 0 W/m2
23:30 -2.4 °C -3.8 °C 1013.1 hPa Calm     90% 0 mm 0 W/m2
23:36 -2.5 °C -3.9 °C 1013.1 hPa Calm     90% 0 mm 0 W/m2
23:42 -2.4 °C -3.8 °C 1013.1 hPa Calm     90% 0 mm 0 W/m2
23:48 -2.4 °C -3.8 °C 1012.8 hPa Calm     90% 0 mm 0 W/m2
23:54 -2.4 °C -3.8 °C 1012.8 hPa Calm     90% 0 mm 0 W/m2
Country Meadow, Clay, NY, USA
Compliments of Weather Underground - 2 mb